createdAt,value
2019-06-10T00:02:03.795Z,83.50
2019-06-10T00:04:34.014Z,83.00
2019-06-10T00:07:05.817Z,84.00
2019-06-10T00:09:36.403Z,83.00
2019-06-10T00:12:08.138Z,82.30
2019-06-10T00:14:38.918Z,82.90
2019-06-10T00:17:11.012Z,82.30
2019-06-10T00:19:41.224Z,82.50
2019-06-10T00:22:11.966Z,82.70
2019-06-10T00:24:42.420Z,83.00
2019-06-10T00:27:12.786Z,83.60
2019-06-10T00:29:43.082Z,83.60
2019-06-10T00:32:13.567Z,83.30
2019-06-10T00:34:43.879Z,82.60
2019-06-10T00:37:14.968Z,82.20
2019-06-10T00:39:45.445Z,85.60
2019-06-10T00:42:15.895Z,84.00
2019-06-10T00:44:46.206Z,84.80
2019-06-10T00:47:16.573Z,85.70
2019-06-10T00:49:46.882Z,85.80
2019-06-10T00:52:17.251Z,85.70
2019-06-10T00:54:51.938Z,85.60
2019-06-10T00:57:22.454Z,85.90
2019-06-10T00:59:52.761Z,85.30
2019-06-10T01:02:23.118Z,84.40
2019-06-10T01:04:53.418Z,85.30
2019-06-10T01:07:23.795Z,85.90
2019-06-10T01:09:54.112Z,85.80
2019-06-10T01:12:24.502Z,86.20
2019-06-10T01:14:54.816Z,86.90
2019-06-10T01:17:25.201Z,85.40
2019-06-10T01:19:55.498Z,86.00
2019-06-10T01:22:25.874Z,84.60
2019-06-10T01:24:56.186Z,85.50
2019-06-10T01:27:26.557Z,86.30
2019-06-10T01:29:56.876Z,86.10
2019-06-10T01:32:27.252Z,87.40
2019-06-10T01:34:57.554Z,85.90
2019-06-10T01:37:27.925Z,87.20
2019-06-10T01:40:00.642Z,86.10
2019-06-10T01:42:30.670Z,86.30
2019-06-10T01:45:01.270Z,86.30
2019-06-10T01:47:32.905Z,86.10
2019-06-10T01:50:03.220Z,86.70
2019-06-10T01:52:33.582Z,86.00
2019-06-10T01:55:05.749Z,85.70
2019-06-10T01:57:36.165Z,85.30
2019-06-10T02:00:12.428Z,84.80
2019-06-10T02:02:44.701Z,84.50
2019-06-10T02:05:14.905Z,84.10
2019-06-10T02:07:45.082Z,83.60
2019-06-10T02:10:17.187Z,83.50
2019-06-10T02:12:47.471Z,83.00
2019-06-10T02:15:18.382Z,82.60
2019-06-10T02:17:50.980Z,81.60
2019-06-10T02:20:23.852Z,81.80
2019-06-10T02:22:53.492Z,82.20
2019-06-10T02:25:23.782Z,82.00
2019-06-10T02:27:54.162Z,82.70
2019-06-10T02:30:40.071Z,83.00
2019-06-10T02:32:56.468Z,82.80
2019-06-10T02:35:38.736Z,84.00
2019-06-10T02:37:58.766Z,84.20
2019-06-10T02:40:35.557Z,84.20
2019-06-10T02:43:03.502Z,84.00
2019-06-10T02:45:37.285Z,84.10
2019-06-10T02:48:05.174Z,84.60
2019-06-10T02:50:53.485Z,84.70
2019-06-10T02:53:28.484Z,84.90
2019-06-10T02:55:54.469Z,85.90
2019-06-10T02:58:33.270Z,85.10
2019-06-10T03:00:56.780Z,86.00
2019-06-10T03:03:37.265Z,86.60
2019-06-10T03:05:59.234Z,85.70
2019-06-10T03:08:32.801Z,86.20
2019-06-10T03:11:03.725Z,87.20
2019-06-10T03:13:33.524Z,86.70
2019-06-10T03:16:08.404Z,87.10
2019-06-10T03:18:38.762Z,86.80
2019-06-10T03:21:09.077Z,87.70
2019-06-10T03:23:39.442Z,87.40
2019-06-10T03:26:12.168Z,87.50
2019-06-10T03:28:42.732Z,86.40
2019-06-10T03:31:15.568Z,85.60
2019-06-10T03:33:47.784Z,85.40
2019-06-10T03:36:18.205Z,85.90
2019-06-10T03:38:48.753Z,85.60
2019-06-10T03:41:19.064Z,86.50
2019-06-10T03:43:49.426Z,87.30
2019-06-10T03:46:19.725Z,86.50
2019-06-10T03:48:52.477Z,87.90
2019-06-10T03:51:24.302Z,86.90
2019-06-10T03:53:54.007Z,86.20
2019-06-10T03:56:25.427Z,86.50
2019-06-10T03:58:56.294Z,86.90
2019-06-10T04:01:28.641Z,87.20
2019-06-10T04:03:58.612Z,86.60
2019-06-10T04:06:29.466Z,87.80
2019-06-10T04:09:02.623Z,86.70
2019-06-10T04:11:35.444Z,85.70
2019-06-10T04:14:04.437Z,87.20
2019-06-10T04:16:34.775Z,86.30
2019-06-10T04:19:05.137Z,85.90
2019-06-10T04:21:35.453Z,90.10
2019-06-10T04:24:05.833Z,89.00
2019-06-10T04:26:36.128Z,87.60
2019-06-10T04:29:07.507Z,86.60
2019-06-10T04:31:37.881Z,87.20
2019-06-10T04:34:08.304Z,87.30
2019-06-10T04:36:38.616Z,88.90
2019-06-10T04:39:08.975Z,87.60
2019-06-10T04:41:39.274Z,87.80
2019-06-10T04:44:09.728Z,86.80
2019-06-10T04:46:40.026Z,86.90
2019-06-10T04:49:12.927Z,89.80
2019-06-10T04:51:43.371Z,88.20
2019-06-10T04:54:15.083Z,86.50
2019-06-10T04:56:45.401Z,87.10
2019-06-10T04:59:15.765Z,86.30
2019-06-10T05:01:46.083Z,86.60
2019-06-10T05:04:16.454Z,86.80
2019-06-10T05:06:49.318Z,87.10
2019-06-10T05:09:21.406Z,87.40
2019-06-10T05:11:52.244Z,87.80
2019-06-10T05:14:25.285Z,87.90
2019-06-10T05:16:54.756Z,89.00
2019-06-10T05:19:26.420Z,88.20
2019-06-10T05:21:57.068Z,87.10
2019-06-10T05:24:29.539Z,88.30
2019-06-10T05:26:59.366Z,87.90
2019-06-10T05:29:31.128Z,89.50
2019-06-10T05:32:02.641Z,87.80
2019-06-10T05:34:34.697Z,89.20
2019-06-10T05:37:04.985Z,89.40
2019-06-10T05:39:35.373Z,90.10
2019-06-10T05:42:05.676Z,89.50
2019-06-10T05:44:36.070Z,88.50
2019-06-10T05:47:06.395Z,87.80
2019-06-10T05:49:36.778Z,89.00
2019-06-10T05:52:07.086Z,89.50
2019-06-10T05:54:37.464Z,85.90
2019-06-10T05:57:07.767Z,84.70
2019-06-10T05:59:38.134Z,85.90
2019-06-10T06:02:08.649Z,85.50
2019-06-10T06:04:39.014Z,84.90
2019-06-10T06:07:12.910Z,84.80
2019-06-10T06:09:43.542Z,86.00
2019-06-10T06:12:14.363Z,85.00
2019-06-10T06:14:44.884Z,83.80
2019-06-10T06:17:16.795Z,83.90
2019-06-10T06:19:47.383Z,84.20
2019-06-10T06:22:17.674Z,84.40
2019-06-10T06:24:48.033Z,85.30
2019-06-10T06:27:18.334Z,82.90
2019-06-10T06:29:48.706Z,82.90
2019-06-10T06:32:19.006Z,82.40
2019-06-10T06:34:49.389Z,83.20
2019-06-10T06:37:19.724Z,82.50
2019-06-10T06:39:52.205Z,85.30
2019-06-10T06:42:22.923Z,82.70
2019-06-10T06:44:53.464Z,82.20
2019-06-10T06:47:23.754Z,82.50
2019-06-10T06:49:54.118Z,82.50
2019-06-10T06:52:46.338Z,85.00
2019-06-10T06:54:56.348Z,84.50
2019-06-10T06:57:26.629Z,84.90
2019-06-10T06:59:56.975Z,83.90
2019-06-10T07:02:27.243Z,84.30
2019-06-10T07:04:57.751Z,80.90
2019-06-10T07:07:30.121Z,80.70
2019-06-10T07:10:03.206Z,79.80
2019-06-10T07:12:36.325Z,79.60
2019-06-10T07:15:12.180Z,79.30
2019-06-10T07:17:45.481Z,78.60
2019-06-10T07:20:15.072Z,78.00
2019-06-10T07:22:46.685Z,78.00
2019-06-10T07:25:18.318Z,77.40
2019-06-10T07:27:48.611Z,77.60
2019-06-10T07:30:18.970Z,77.60
2019-06-10T07:32:49.266Z,76.40
2019-06-10T07:35:22.055Z,76.40
2019-06-10T07:37:52.324Z,77.00
2019-06-10T07:40:22.769Z,76.00
2019-06-10T07:42:53.161Z,75.50
2019-06-10T07:45:23.497Z,75.40
2019-06-10T07:47:53.798Z,75.10
2019-06-10T07:50:24.129Z,75.30
2019-06-10T07:52:54.391Z,75.00
2019-06-10T07:55:24.726Z,75.10
2019-06-10T07:57:55.030Z,75.90
2019-06-10T08:00:25.652Z,75.10
2019-06-10T08:02:55.974Z,74.80
2019-06-10T08:05:26.343Z,74.90
2019-06-10T08:07:56.657Z,74.30
2019-06-10T08:10:27.069Z,74.00
2019-06-10T08:12:57.340Z,73.80
2019-06-10T08:15:27.724Z,74.00
2019-06-10T08:17:57.991Z,73.70
2019-06-10T08:20:45.241Z,73.50
2019-06-10T08:23:19.761Z,73.60
2019-06-10T08:25:56.460Z,73.60
2019-06-10T08:28:23.713Z,73.30
2019-06-10T08:30:54.068Z,73.40
2019-06-10T08:33:24.340Z,73.40
2019-06-10T08:35:59.540Z,72.80
2019-06-10T08:38:26.661Z,71.80
2019-06-10T08:40:56.983Z,71.20
2019-06-10T08:43:28.247Z,69.00
2019-06-10T08:45:58.581Z,69.90
2019-06-10T08:48:32.738Z,68.60
2019-06-10T08:51:03.981Z,68.30
2019-06-10T08:53:34.485Z,67.80
2019-06-10T08:56:05.047Z,68.20
2019-06-10T08:58:35.346Z,68.40
2019-06-10T09:01:05.806Z,66.70
2019-06-10T09:03:36.077Z,67.40
2019-06-10T09:06:06.417Z,66.40
2019-06-10T09:08:39.545Z,64.50
2019-06-10T09:11:08.665Z,61.80
2019-06-10T09:13:39.603Z,62.20
2019-06-10T09:16:18.972Z,64.00
2019-06-10T09:18:46.313Z,61.10
2019-06-10T09:21:15.004Z,59.40
2019-06-10T09:23:48.296Z,59.70
2019-06-10T09:26:17.258Z,60.90
2019-06-10T09:28:52.373Z,59.70
2019-06-10T09:31:19.574Z,59.80
2019-06-10T09:33:53.294Z,60.10
2019-06-10T09:36:23.554Z,60.60
2019-06-10T09:38:55.636Z,61.90
2019-06-10T09:41:36.479Z,64.50
2019-06-10T09:43:57.672Z,64.90
2019-06-10T09:46:33.060Z,65.10
2019-06-10T09:49:05.010Z,65.80
2019-06-10T09:51:35.370Z,65.50
2019-06-10T09:54:06.518Z,64.70
2019-06-10T09:56:37.490Z,64.20
2019-06-10T09:59:12.502Z,63.00
2019-06-10T10:01:47.274Z,64.40
2019-06-10T10:04:15.034Z,62.70
2019-06-10T10:06:49.566Z,64.50
2019-06-10T10:09:17.793Z,61.70
2019-06-10T10:11:55.157Z,61.20
2019-06-10T10:14:23.434Z,62.20
2019-06-10T10:16:59.908Z,60.40
2019-06-10T10:19:26.530Z,60.30
2019-06-10T10:21:58.449Z,61.00
2019-06-10T10:24:28.954Z,61.90
2019-06-10T10:27:01.883Z,62.70
2019-06-10T10:29:32.838Z,62.40
2019-06-10T10:32:03.185Z,61.30
2019-06-10T10:34:33.516Z,59.80
2019-06-10T10:37:03.860Z,59.80
2019-06-10T10:39:34.139Z,60.60
2019-06-10T10:42:04.809Z,61.90
2019-06-10T10:44:35.097Z,61.80
2019-06-10T10:47:07.053Z,61.70
2019-06-10T10:49:37.316Z,61.90
2019-06-10T10:52:07.715Z,61.90
2019-06-10T10:54:38.007Z,62.30
2019-06-10T10:57:08.362Z,64.20
2019-06-10T10:59:38.628Z,63.80
2019-06-10T11:02:08.958Z,62.60
2019-06-10T11:04:44.166Z,63.20
2019-06-10T11:07:14.228Z,62.40
2019-06-10T11:09:45.445Z,63.70
2019-06-10T11:12:17.849Z,63.30
2019-06-10T11:14:49.261Z,63.20
2019-06-10T11:17:19.658Z,64.10
2019-06-10T11:19:52.726Z,63.80
2019-06-10T11:22:23.242Z,65.00
2019-06-10T11:24:56.058Z,64.60
2019-06-10T11:27:25.718Z,65.10
2019-06-10T11:29:57.821Z,66.80
2019-06-10T11:32:27.965Z,67.50
2019-06-10T11:34:58.664Z,68.00
2019-06-10T11:37:29.208Z,67.80
2019-06-10T11:39:59.503Z,67.40
2019-06-10T11:42:29.870Z,66.50
2019-06-10T11:45:02.752Z,67.40
2019-06-10T11:47:33.044Z,65.60
2019-06-10T11:50:04.901Z,64.60
2019-06-10T11:52:35.833Z,64.40
2019-06-10T11:55:15.230Z,64.80
2019-06-10T11:57:39.306Z,64.90
2019-06-10T12:00:14.739Z,65.80
2019-06-10T12:02:43.050Z,66.60
2019-06-10T12:05:13.920Z,65.80
2019-06-10T12:07:44.275Z,64.90
2019-06-10T12:10:14.762Z,65.30
2019-06-10T12:12:45.090Z,64.80
2019-06-10T12:15:16.190Z,63.50
2019-06-10T12:17:50.816Z,63.30
2019-06-10T12:20:19.013Z,62.70
2019-06-10T12:22:49.557Z,63.20
2019-06-10T12:25:32.576Z,61.50
2019-06-10T12:27:55.813Z,62.40
2019-06-10T12:30:23.865Z,63.30
2019-06-10T12:32:57.456Z,63.70
2019-06-10T12:35:26.255Z,62.80
2019-06-10T12:37:59.510Z,63.30
2019-06-10T12:40:28.510Z,63.50
2019-06-10T12:43:00.722Z,61.80
2019-06-10T12:45:32.621Z,62.60
2019-06-10T12:48:06.276Z,63.00
2019-06-10T12:50:34.601Z,61.20
2019-06-10T12:53:07.093Z,61.50
2019-06-10T12:55:43.051Z,62.70
2019-06-10T12:58:10.351Z,62.20
2019-06-10T13:00:47.975Z,62.50
2019-06-10T13:03:18.308Z,62.70
2019-06-10T13:05:48.586Z,63.00
2019-06-10T13:08:20.532Z,63.30
2019-06-10T13:10:53.042Z,63.80
2019-06-10T13:13:22.917Z,63.10
2019-06-10T13:15:54.054Z,63.00
2019-06-10T13:18:24.396Z,64.60
2019-06-10T13:20:54.653Z,64.30
2019-06-10T13:23:31.569Z,63.30
2019-06-10T13:26:00.143Z,61.80
2019-06-10T13:28:28.808Z,62.30
2019-06-10T13:30:59.167Z,62.00
2019-06-10T13:33:29.782Z,62.30
2019-06-10T13:36:00.925Z,61.80
2019-06-10T13:38:33.237Z,61.10
2019-06-10T13:41:04.280Z,61.10
2019-06-10T13:43:34.748Z,61.80
2019-06-10T13:46:07.403Z,59.60
2019-06-10T13:48:36.989Z,60.10
2019-06-10T13:51:10.950Z,60.90
2019-06-10T13:53:39.266Z,60.50
2019-06-10T13:56:36.963Z,60.30
2019-06-10T13:58:45.045Z,61.00
2019-06-10T14:01:21.114Z,60.10
2019-06-10T14:03:45.469Z,61.20
2019-06-10T14:06:32.591Z,60.80
2019-06-10T14:08:47.733Z,61.40
2019-06-10T14:11:19.080Z,62.60
2019-06-10T14:13:49.550Z,60.40
2019-06-10T14:16:19.816Z,59.90
2019-06-10T14:18:50.140Z,60.40
2019-06-10T14:21:23.493Z,60.70
2019-06-10T14:23:52.419Z,59.00
2019-06-10T14:26:36.716Z,60.10
2019-06-10T14:28:54.669Z,60.30
2019-06-10T14:31:39.455Z,59.50
2019-06-10T14:33:56.921Z,58.50
2019-06-10T14:36:27.193Z,59.10
2019-06-10T14:38:57.526Z,58.50
2019-06-10T14:41:27.819Z,58.20
2019-06-10T14:43:59.182Z,58.80
2019-06-10T14:46:29.472Z,58.50
2019-06-10T14:49:02.202Z,58.90
2019-06-10T14:51:32.586Z,59.20
2019-06-10T14:54:03.248Z,59.50
2019-06-10T14:56:49.305Z,59.50
2019-06-10T14:59:07.611Z,59.40
2019-06-10T15:01:37.879Z,58.10
2019-06-10T15:04:08.242Z,59.20
2019-06-10T15:06:38.538Z,58.90
2019-06-10T15:09:09.466Z,56.80
2019-06-10T15:11:39.756Z,57.20
2019-06-10T15:14:12.850Z,57.30
2019-06-10T15:16:43.752Z,57.70
2019-06-10T15:19:21.871Z,57.30
2019-06-10T15:21:46.320Z,56.00
2019-06-10T15:24:16.627Z,56.70
2019-06-10T15:26:46.896Z,57.70
2019-06-10T15:29:18.650Z,57.50
2019-06-10T15:32:05.155Z,57.70
2019-06-10T15:34:21.158Z,58.40
2019-06-10T15:36:52.782Z,57.70
2019-06-10T15:39:24.146Z,57.30
2019-06-10T15:41:54.713Z,57.80
2019-06-10T15:44:47.914Z,57.50
2019-06-10T15:46:56.937Z,58.40
2019-06-10T15:49:27.265Z,58.00
2019-06-10T15:51:57.532Z,57.80
2019-06-10T15:54:27.865Z,57.80
2019-06-10T15:56:58.138Z,57.20
2019-06-10T15:59:28.465Z,58.10
2019-06-10T16:01:58.734Z,58.20
2019-06-10T16:04:29.955Z,58.20
2019-06-10T16:07:02.608Z,58.10
2019-06-10T16:09:32.994Z,58.80
2019-06-10T16:12:03.298Z,58.90
2019-06-10T16:14:35.446Z,60.00
2019-06-10T16:17:05.716Z,58.50
2019-06-10T16:19:37.082Z,57.30
2019-06-10T16:22:07.662Z,56.30
2019-06-10T16:24:38.021Z,56.70
2019-06-10T17:38:15.683Z,62.20
2019-06-10T17:40:48.786Z,62.70
2019-06-10T17:43:19.159Z,62.40
2019-06-10T17:45:49.472Z,62.70
2019-06-10T17:48:22.296Z,61.90
2019-06-10T17:50:56.327Z,61.10
2019-06-10T17:53:28.244Z,60.20
2019-06-10T17:55:58.565Z,60.80
2019-06-10T17:58:40.565Z,58.50
2019-06-10T18:01:03.714Z,57.90
2019-06-10T18:03:35.829Z,57.90
2019-06-10T18:06:07.042Z,57.90
2019-06-10T18:08:40.581Z,58.10
2019-06-10T18:11:09.310Z,58.20
2019-06-10T18:13:39.606Z,58.60
2019-06-10T18:16:09.930Z,58.70
2019-06-10T18:18:42.421Z,59.00
2019-06-10T18:21:12.684Z,59.20
2019-06-10T18:23:43.652Z,59.00
2019-06-10T18:26:14.058Z,59.00
2019-06-10T18:29:00.896Z,58.80
2019-06-10T18:31:18.616Z,59.10
2019-06-10T18:33:49.690Z,59.20
2019-06-10T18:36:20.015Z,59.40
2019-06-10T18:38:52.522Z,59.30
2019-06-10T18:41:22.443Z,59.40
2019-06-10T18:43:52.928Z,59.20
2019-06-10T18:46:23.967Z,59.10
2019-06-10T18:48:54.327Z,58.80
2019-06-10T18:51:24.595Z,59.10
2019-06-10T18:53:54.890Z,59.20
2019-06-10T18:56:25.250Z,59.50
2019-06-10T18:58:56.505Z,59.10
2019-06-10T19:01:28.314Z,59.10
2019-06-10T19:03:58.672Z,58.60
2019-06-10T19:06:31.287Z,58.50
2019-06-10T19:09:03.240Z,58.10
2019-06-10T19:11:36.840Z,57.40
2019-06-10T19:14:07.557Z,57.90
2019-06-10T19:16:38.573Z,57.30
2019-06-10T19:19:12.518Z,58.00
2019-06-10T19:21:43.883Z,58.00
2019-06-10T19:24:14.326Z,58.20
2019-06-10T19:26:45.301Z,56.20
2019-06-10T19:29:29.822Z,56.30
2019-06-10T19:31:47.688Z,56.20
2019-06-10T19:34:17.922Z,55.60
2019-06-10T19:36:48.282Z,55.10
2019-06-10T19:39:18.581Z,55.60
2019-06-10T19:41:48.980Z,56.00
2019-06-10T19:44:19.326Z,56.20
2019-06-10T19:46:52.106Z,56.60
2019-06-10T19:49:22.052Z,57.10
2019-06-10T19:51:52.712Z,57.70
2019-06-10T19:54:23.041Z,58.20
2019-06-10T19:56:53.398Z,58.60
2019-06-10T19:59:23.659Z,59.10
2019-06-10T20:01:54.492Z,59.10
2019-06-10T20:04:24.753Z,58.90
2019-06-10T20:06:55.080Z,58.90
2019-06-10T20:09:25.374Z,58.70
2019-06-10T20:11:55.717Z,57.10
2019-06-10T20:14:25.989Z,57.20
2019-06-10T20:16:56.333Z,57.60
2019-06-10T20:19:26.613Z,57.80
2019-06-10T20:21:56.979Z,57.70
2019-06-10T20:24:27.237Z,57.40
2019-06-10T20:26:57.562Z,56.90
2019-06-10T20:29:27.826Z,56.50
2019-06-10T20:31:58.146Z,56.90
2019-06-10T20:34:28.553Z,56.50
2019-06-10T20:36:58.882Z,56.40
2019-06-10T20:39:29.626Z,56.20
2019-06-10T20:42:02.534Z,55.70
2019-06-10T20:44:32.599Z,55.30
2019-06-10T20:47:03.021Z,55.40
2019-06-10T20:49:33.309Z,55.10
2019-06-10T20:52:10.788Z,55.20
2019-06-10T20:54:35.842Z,54.60
2019-06-10T20:57:06.181Z,54.90
2019-06-10T20:59:37.446Z,55.10
2019-06-10T21:02:08.706Z,55.40
2019-06-10T21:04:39.053Z,55.40
2019-06-10T21:07:12.567Z,55.40
2019-06-10T21:09:44.399Z,55.00
2019-06-10T21:12:15.277Z,54.50
2019-06-10T21:14:46.881Z,54.80
2019-06-10T21:17:17.482Z,54.90
2019-06-10T21:19:49.131Z,55.20
2019-06-10T21:22:19.589Z,55.30
2019-06-10T21:24:51.339Z,55.30
2019-06-10T21:27:23.811Z,55.10
2019-06-10T21:29:54.963Z,54.80
2019-06-10T21:32:26.298Z,54.40
2019-06-10T21:34:56.574Z,54.00
2019-06-10T21:37:32.000Z,54.20
2019-06-10T21:40:03.350Z,55.20
2019-06-10T21:42:33.930Z,54.90
2019-06-10T21:45:05.787Z,54.60
2019-06-10T21:47:36.119Z,55.40
2019-06-10T21:50:08.652Z,55.30
2019-06-10T21:52:38.981Z,55.70
2019-06-10T21:55:09.222Z,55.70
2019-06-10T21:57:39.587Z,55.60
2019-06-10T22:00:14.053Z,55.70
2019-06-10T22:02:47.083Z,55.80
2019-06-10T22:05:18.090Z,55.80
2019-06-10T22:07:49.595Z,55.90
2019-06-10T22:10:19.914Z,55.90
2019-06-10T22:12:52.730Z,56.00
2019-06-10T22:15:22.610Z,56.00
2019-06-10T22:17:54.796Z,55.90
2019-06-10T22:20:26.185Z,55.40
2019-06-10T22:22:56.520Z,55.40
2019-06-10T22:25:26.776Z,55.30
2019-06-10T22:27:57.105Z,55.20
2019-06-10T22:30:27.373Z,55.20
2019-06-10T22:32:58.010Z,55.60
2019-06-10T22:35:28.366Z,55.00
2019-06-10T22:37:58.744Z,54.70
2019-06-10T22:40:29.412Z,54.90
2019-06-10T22:42:59.800Z,55.70
2019-06-10T22:45:32.134Z,57.10
2019-06-10T22:48:03.044Z,56.70
2019-06-10T22:50:33.550Z,56.70
2019-06-10T22:53:04.171Z,56.70
2019-06-10T22:55:34.522Z,56.50
2019-06-10T22:58:06.403Z,57.00
2019-06-10T23:00:36.730Z,57.20
2019-06-10T23:03:07.090Z,57.00
2019-06-10T23:05:37.401Z,56.50
2019-06-10T23:08:07.750Z,56.20
2019-06-10T23:10:38.042Z,55.90
2019-06-10T23:13:08.434Z,56.20
2019-06-10T23:15:38.749Z,55.80
2019-06-10T23:18:09.098Z,55.10
2019-06-10T23:20:39.421Z,54.80
2019-06-10T23:23:09.770Z,54.40
2019-06-10T23:25:42.956Z,54.50
2019-06-10T23:28:13.267Z,53.80
2019-06-10T23:30:43.622Z,53.50
2019-06-10T23:33:13.950Z,53.50
2019-06-10T23:35:46.987Z,53.20
2019-06-10T23:38:16.246Z,52.70
2019-06-10T23:40:46.553Z,52.40
2019-06-10T23:43:16.932Z,53.00
2019-06-10T23:45:47.214Z,52.90
2019-06-10T23:48:17.566Z,53.30
2019-06-10T23:50:47.857Z,54.30
2019-06-10T23:53:18.218Z,54.00
2019-06-10T23:55:48.514Z,53.20
2019-06-10T23:58:21.953Z,53.10
